createdAt,value
2019-02-11T00:00:14.845Z,988.16
2019-02-11T00:01:14.928Z,988.17
2019-02-11T00:02:14.842Z,988.10
2019-02-11T00:03:14.745Z,988.09
2019-02-11T00:04:14.716Z,988.10
2019-02-11T00:05:14.676Z,988.09
2019-02-11T00:06:14.668Z,988.12
2019-02-11T00:07:15.570Z,988.04
2019-02-11T00:08:14.573Z,988.08
2019-02-11T00:09:14.545Z,988.08
2019-02-11T00:10:14.510Z,988.15
2019-02-11T00:11:14.508Z,988.04
2019-02-11T00:12:14.446Z,988.17
2019-02-11T00:13:14.435Z,988.10
2019-02-11T00:14:15.476Z,988.13
2019-02-11T00:15:14.342Z,988.10
2019-02-11T00:16:14.335Z,988.05
2019-02-11T00:17:15.073Z,988.17
2019-02-11T00:18:14.245Z,988.13
2019-02-11T00:19:14.207Z,988.09
2019-02-11T00:20:14.204Z,988.04
2019-02-11T00:21:14.163Z,988.11
2019-02-11T00:22:14.115Z,988.08
2019-02-11T00:23:18.977Z,988.22
2019-02-11T00:24:14.055Z,988.23
2019-02-11T00:25:14.008Z,988.30
2019-02-11T00:26:13.995Z,988.31
2019-02-11T00:27:13.949Z,988.38
2019-02-11T00:28:13.905Z,988.39
2019-02-11T00:29:14.124Z,988.41
2019-02-11T00:30:13.864Z,988.52
2019-02-11T00:31:13.929Z,988.48
2019-02-11T00:32:13.785Z,988.51
2019-02-11T00:33:13.745Z,988.42
2019-02-11T00:34:13.706Z,988.46
2019-02-11T00:35:13.668Z,988.60
2019-02-11T00:36:13.652Z,988.59
2019-02-11T00:37:13.629Z,988.65
2019-02-11T00:38:13.568Z,988.69
2019-02-11T00:39:13.535Z,988.70
2019-02-11T00:40:13.497Z,988.74
2019-02-11T00:41:13.480Z,988.84
2019-02-11T00:42:13.459Z,988.83
2019-02-11T00:43:19.024Z,988.88
2019-02-11T00:44:13.363Z,988.91
2019-02-11T00:45:13.327Z,988.95
2019-02-11T00:46:13.307Z,989.08
2019-02-11T00:47:13.285Z,989.06
2019-02-11T00:48:13.232Z,989.04
2019-02-11T00:49:13.197Z,989.09
2019-02-11T00:50:13.166Z,989.09
2019-02-11T00:51:13.140Z,989.13
2019-02-11T00:52:13.114Z,989.18
2019-02-11T00:53:13.060Z,989.29
2019-02-11T00:54:13.022Z,989.20
2019-02-11T00:55:12.985Z,989.26
2019-02-11T00:56:13.000Z,989.27
2019-02-11T00:57:12.948Z,989.25
2019-02-11T00:58:12.897Z,989.33
2019-02-11T00:59:12.853Z,989.43
2019-02-11T01:00:12.817Z,989.29
2019-02-11T01:01:12.794Z,989.44
2019-02-11T01:02:12.772Z,989.44
2019-02-11T01:03:12.717Z,989.40
2019-02-11T01:04:12.681Z,989.44
2019-02-11T01:05:12.649Z,989.47
2019-02-11T01:06:12.629Z,989.56
2019-02-11T01:07:12.607Z,989.46
2019-02-11T01:08:12.543Z,989.62
2019-02-11T01:09:12.511Z,989.56
2019-02-11T01:10:12.502Z,989.62
2019-02-11T01:11:12.442Z,989.79
2019-02-11T01:12:12.431Z,989.74
2019-02-11T01:13:12.375Z,989.69
2019-02-11T01:14:12.335Z,989.74
2019-02-11T01:15:12.301Z,989.79
2019-02-11T01:16:12.264Z,989.80
2019-02-11T01:17:12.267Z,989.85
2019-02-11T01:18:12.196Z,989.94
2019-02-11T01:19:12.163Z,989.90
2019-02-11T01:20:12.127Z,990.02
2019-02-11T01:21:12.094Z,989.98
2019-02-11T01:22:12.083Z,990.00
2019-02-11T01:23:12.029Z,990.05
2019-02-11T01:24:12.130Z,990.04
2019-02-11T01:25:12.744Z,990.10
2019-02-11T01:26:11.919Z,990.08
2019-02-11T01:27:11.906Z,990.10
2019-02-11T01:28:11.852Z,990.17
2019-02-11T01:29:11.817Z,990.12
2019-02-11T01:30:12.584Z,990.16
2019-02-11T01:31:11.747Z,990.13
2019-02-11T01:32:11.736Z,990.19
2019-02-11T01:33:11.695Z,990.15
2019-02-11T01:34:11.640Z,990.15
2019-02-11T01:35:11.602Z,990.19
2019-02-11T01:36:11.572Z,990.24
2019-02-11T01:37:11.570Z,990.19
2019-02-11T01:38:12.486Z,990.25
2019-02-11T01:39:11.474Z,990.19
2019-02-11T01:40:11.462Z,990.30
2019-02-11T01:41:12.080Z,990.32
2019-02-11T01:42:11.619Z,990.27
2019-02-11T01:43:11.372Z,990.36
2019-02-11T01:44:12.079Z,990.35
2019-02-11T01:45:11.257Z,990.41
2019-02-11T01:46:11.219Z,990.32
2019-02-11T01:47:11.221Z,990.38
2019-02-11T01:48:11.156Z,990.36
2019-02-11T01:49:11.111Z,990.33
2019-02-11T01:50:14.487Z,990.53
2019-02-11T01:51:11.045Z,990.46
2019-02-11T01:52:11.045Z,990.51
2019-02-11T01:53:10.964Z,990.52
2019-02-11T01:54:10.929Z,990.54
2019-02-11T01:55:10.914Z,990.61
2019-02-11T01:56:10.874Z,990.68
2019-02-11T01:57:10.880Z,990.66
2019-02-11T01:58:10.789Z,990.82
2019-02-11T01:59:10.749Z,990.75
2019-02-11T02:00:10.718Z,990.81
2019-02-11T02:01:10.714Z,990.89
2019-02-11T02:02:10.678Z,990.89
2019-02-11T02:03:11.127Z,990.90
2019-02-11T02:04:10.572Z,991.01
2019-02-11T02:05:10.540Z,991.01
2019-02-11T02:06:10.500Z,991.03
2019-02-11T02:07:10.464Z,990.96
2019-02-11T02:08:10.454Z,991.03
2019-02-11T02:09:10.404Z,991.05
2019-02-11T02:10:10.359Z,991.06
2019-02-11T02:11:10.318Z,991.08
2019-02-11T02:12:10.286Z,991.17
2019-02-11T02:13:10.324Z,991.15
2019-02-11T02:14:10.218Z,991.19
2019-02-11T02:15:10.185Z,991.28
2019-02-11T02:16:11.106Z,991.23
2019-02-11T02:17:11.081Z,991.27
2019-02-11T02:18:10.102Z,991.31
2019-02-11T02:19:10.031Z,991.37
2019-02-11T02:20:09.995Z,991.51
2019-02-11T02:21:09.963Z,991.47
2019-02-11T02:22:09.933Z,991.51
2019-02-11T02:23:10.116Z,991.47
2019-02-11T02:24:09.851Z,991.59
2019-02-11T02:25:09.815Z,991.56
2019-02-11T02:26:09.777Z,991.61
2019-02-11T02:27:09.756Z,991.69
2019-02-11T02:28:09.728Z,991.69
2019-02-11T02:29:09.669Z,991.75
2019-02-11T02:30:10.583Z,991.74
2019-02-11T02:31:09.597Z,991.82
2019-02-11T02:32:09.560Z,991.87
2019-02-11T02:33:09.569Z,991.88
2019-02-11T02:34:09.496Z,991.85
2019-02-11T02:35:09.448Z,991.88
2019-02-11T02:36:09.416Z,991.99
2019-02-11T02:37:09.402Z,991.91
2019-02-11T02:38:09.371Z,991.88
2019-02-11T02:39:09.306Z,991.92
2019-02-11T02:40:09.271Z,992.00
2019-02-11T02:41:09.238Z,991.99
2019-02-11T02:42:09.196Z,992.01
2019-02-11T02:43:09.618Z,992.02
2019-02-11T02:44:09.131Z,992.10
2019-02-11T02:45:09.094Z,992.05
2019-02-11T02:46:09.123Z,992.09
2019-02-11T02:47:09.033Z,992.17
2019-02-11T02:48:09.004Z,992.20
2019-02-11T02:49:08.945Z,992.16
2019-02-11T02:50:08.912Z,992.21
2019-02-11T02:51:08.871Z,992.27
2019-02-11T02:52:08.832Z,992.28
2019-02-11T02:53:08.823Z,992.38
2019-02-11T02:54:08.766Z,992.35
2019-02-11T02:55:09.586Z,992.38
2019-02-11T02:56:08.689Z,992.37
2019-02-11T02:57:08.650Z,992.36
2019-02-11T02:58:08.645Z,992.39
2019-02-11T02:59:08.577Z,992.45
2019-02-11T03:00:08.628Z,992.57
2019-02-11T03:04:11.791Z,992.54
2019-02-11T03:05:11.771Z,992.67
2019-02-11T03:06:11.686Z,992.63
2019-02-11T03:07:11.652Z,992.60
2019-02-11T03:08:11.613Z,992.64
2019-02-11T03:09:11.584Z,992.73
2019-02-11T03:10:11.545Z,992.71
2019-02-11T03:11:11.551Z,992.71
2019-02-11T03:12:11.667Z,992.77
2019-02-11T03:13:11.443Z,992.81
2019-02-11T03:14:11.394Z,992.76
2019-02-11T03:15:11.375Z,992.81
2019-02-11T03:16:11.327Z,992.85
2019-02-11T03:17:11.331Z,992.91
2019-02-11T03:18:11.254Z,992.96
2019-02-11T03:19:11.215Z,993.04
2019-02-11T03:20:11.178Z,993.04
2019-02-11T03:21:11.156Z,993.09
2019-02-11T03:22:11.138Z,993.17
2019-02-11T03:23:11.073Z,993.17
2019-02-11T03:24:11.063Z,993.10
2019-02-11T03:25:11.000Z,993.17
2019-02-11T03:26:10.962Z,993.35
2019-02-11T03:27:10.924Z,993.25
2019-02-11T03:28:10.945Z,993.30
2019-02-11T03:29:10.861Z,993.29
2019-02-11T03:30:10.821Z,993.39
2019-02-11T03:31:10.785Z,993.47
2019-02-11T03:32:10.753Z,993.47
2019-02-11T03:33:10.723Z,993.48
2019-02-11T03:34:10.726Z,993.44
2019-02-11T03:35:10.644Z,993.50
2019-02-11T03:36:10.612Z,993.53
2019-02-11T03:37:10.571Z,993.56
2019-02-11T03:38:10.542Z,993.56
2019-02-11T03:39:10.498Z,993.67
2019-02-11T03:40:10.492Z,993.72
2019-02-11T03:41:10.431Z,993.79
2019-02-11T03:42:10.407Z,993.82
2019-02-11T03:43:10.355Z,993.77
2019-02-11T03:44:15.037Z,993.82
2019-02-11T03:45:10.316Z,993.91
2019-02-11T03:46:10.247Z,993.98
2019-02-11T03:47:10.233Z,994.01
2019-02-11T03:48:10.190Z,993.94
2019-02-11T03:49:10.172Z,994.00
2019-02-11T03:50:10.286Z,993.99
2019-02-11T03:51:10.080Z,994.13
2019-02-11T03:52:10.048Z,994.18
2019-02-11T03:53:10.010Z,994.12
2019-02-11T03:54:09.965Z,994.21
2019-02-11T03:55:09.979Z,994.36
2019-02-11T03:56:09.932Z,994.26
2019-02-11T03:57:09.870Z,994.30
2019-02-11T03:58:09.953Z,994.32
2019-02-11T03:59:09.790Z,994.33
2019-02-11T04:00:09.754Z,994.48
2019-02-11T04:01:09.795Z,994.48
2019-02-11T04:02:09.688Z,994.48
2019-02-11T04:03:09.660Z,994.41
2019-02-11T04:04:09.851Z,994.51
2019-02-11T04:05:09.578Z,994.48
2019-02-11T04:06:09.578Z,994.52
2019-02-11T04:07:09.512Z,994.49
2019-02-11T04:08:09.493Z,994.60
2019-02-11T04:09:09.468Z,994.59
2019-02-11T04:10:09.570Z,994.64
2019-02-11T04:11:09.400Z,994.68
2019-02-11T04:12:09.341Z,994.69
2019-02-11T04:13:09.299Z,994.72
2019-02-11T04:14:09.270Z,994.64
2019-02-11T04:15:09.305Z,994.77
2019-02-11T04:16:09.929Z,994.81
2019-02-11T04:17:09.170Z,994.82
2019-02-11T04:18:09.124Z,994.87
2019-02-11T04:19:09.103Z,994.94
2019-02-11T04:20:09.060Z,995.08
2019-02-11T04:21:09.056Z,995.01
2019-02-11T04:22:08.984Z,995.00
2019-02-11T04:23:08.954Z,995.10
2019-02-11T04:24:08.924Z,995.15
2019-02-11T04:25:08.882Z,995.05
2019-02-11T04:26:08.876Z,995.12
2019-02-11T04:27:08.811Z,995.08
2019-02-11T04:28:08.784Z,995.20
2019-02-11T04:29:08.741Z,995.17
2019-02-11T04:30:08.715Z,995.17
2019-02-11T04:31:08.707Z,995.11
2019-02-11T04:32:08.634Z,995.18
2019-02-11T04:33:08.600Z,995.36
2019-02-11T04:34:08.570Z,995.29
2019-02-11T04:35:08.550Z,995.41
2019-02-11T04:36:08.535Z,995.29
2019-02-11T04:37:08.524Z,995.38
2019-02-11T04:38:08.430Z,995.35
2019-02-11T04:39:08.394Z,995.41
2019-02-11T04:40:09.321Z,995.45
2019-02-11T04:41:08.324Z,995.39
2019-02-11T04:42:08.322Z,995.51
2019-02-11T04:43:08.251Z,995.55
2019-02-11T04:44:08.214Z,995.70
2019-02-11T04:45:08.180Z,995.54
2019-02-11T04:46:08.151Z,995.65
2019-02-11T04:47:08.142Z,995.71
2019-02-11T04:48:08.167Z,995.63
2019-02-11T04:49:08.039Z,995.72
2019-02-11T04:50:08.015Z,995.87
2019-02-11T04:51:07.974Z,995.82
2019-02-11T04:52:08.979Z,995.85
2019-02-11T04:53:07.907Z,995.87
2019-02-11T04:54:07.890Z,996.00
2019-02-11T04:55:07.831Z,995.94
2019-02-11T04:56:07.810Z,995.94
2019-02-11T04:57:07.796Z,995.93
2019-02-11T04:58:07.727Z,995.93
2019-02-11T04:59:07.697Z,995.97
2019-02-11T05:00:07.662Z,996.00
2019-02-11T05:01:07.625Z,996.14
2019-02-11T05:02:07.619Z,996.02
2019-02-11T05:03:07.552Z,996.16
2019-02-11T05:04:07.523Z,996.18
2019-02-11T05:05:07.482Z,996.17
2019-02-11T05:06:08.417Z,996.15
2019-02-11T05:07:07.441Z,996.22
2019-02-11T05:08:07.387Z,996.19
2019-02-11T05:09:07.355Z,996.29
2019-02-11T05:10:07.341Z,996.29
2019-02-11T05:11:07.291Z,996.24
2019-02-11T05:12:07.242Z,996.24
2019-02-11T05:13:07.213Z,996.28
2019-02-11T05:14:07.173Z,996.38
2019-02-11T05:15:07.162Z,996.34
2019-02-11T05:16:07.107Z,996.35
2019-02-11T05:17:07.144Z,996.41
2019-02-11T05:18:07.825Z,996.41
2019-02-11T05:19:07.031Z,996.44
2019-02-11T05:20:07.007Z,996.41
2019-02-11T05:21:06.937Z,996.39
2019-02-11T05:22:06.895Z,996.46
2019-02-11T05:23:06.864Z,996.57
2019-02-11T05:24:06.857Z,996.57
2019-02-11T05:25:06.826Z,996.56
2019-02-11T05:26:06.760Z,996.65
2019-02-11T05:27:06.791Z,996.60
2019-02-11T05:28:06.732Z,996.66
2019-02-11T05:29:06.654Z,996.70
2019-02-11T05:30:06.627Z,996.74
2019-02-11T05:31:07.452Z,996.68
2019-02-11T05:32:06.549Z,996.68
2019-02-11T05:33:06.561Z,996.71
2019-02-11T05:34:06.482Z,996.70
2019-02-11T05:35:06.448Z,996.71
2019-02-11T05:36:06.413Z,996.80
2019-02-11T05:37:06.380Z,996.79
2019-02-11T05:38:06.395Z,996.79
2019-02-11T05:39:06.318Z,996.85
2019-02-11T05:40:06.306Z,996.93
2019-02-11T05:41:06.247Z,996.90
2019-02-11T05:42:06.210Z,996.96
2019-02-11T05:43:06.191Z,997.11
2019-02-11T05:44:06.181Z,997.03
2019-02-11T05:45:06.107Z,997.03
2019-02-11T05:46:06.070Z,997.06
2019-02-11T05:47:06.040Z,997.05
2019-02-11T05:48:06.022Z,997.11
2019-02-11T05:49:06.017Z,997.08
2019-02-11T05:50:05.934Z,997.13
2019-02-11T05:51:05.935Z,997.17
2019-02-11T05:52:05.867Z,997.22
2019-02-11T05:53:05.841Z,997.22
2019-02-11T05:54:05.844Z,997.17
2019-02-11T05:55:05.762Z,997.25
2019-02-11T05:56:06.460Z,997.16
2019-02-11T05:57:05.696Z,997.20
2019-02-11T05:58:05.657Z,997.34
2019-02-11T05:59:05.676Z,997.30
2019-02-11T06:00:05.588Z,997.33
2019-02-11T06:01:05.562Z,997.36
2019-02-11T06:02:05.523Z,997.35
2019-02-11T06:03:05.485Z,997.41
2019-02-11T06:04:05.538Z,997.40
2019-02-11T06:05:05.418Z,997.47
2019-02-11T06:06:05.401Z,997.42
2019-02-11T06:07:05.925Z,997.46
2019-02-11T06:08:05.311Z,997.53
2019-02-11T06:09:05.469Z,997.57
2019-02-11T06:10:05.254Z,997.62
2019-02-11T06:11:05.211Z,997.66
2019-02-11T06:12:05.183Z,997.64
2019-02-11T06:13:05.160Z,997.75
2019-02-11T06:14:05.147Z,997.75
2019-02-11T06:15:05.087Z,997.81
2019-02-11T06:16:05.035Z,997.87
2019-02-11T06:17:05.014Z,997.80
2019-02-11T06:18:04.972Z,997.83
2019-02-11T06:19:04.995Z,997.88
2019-02-11T06:20:04.906Z,997.90
2019-02-11T06:21:04.869Z,997.99
2019-02-11T06:22:04.846Z,997.94
2019-02-11T06:23:04.799Z,998.08
2019-02-11T06:24:04.975Z,998.05
2019-02-11T06:25:04.735Z,998.03
2019-02-11T06:26:04.695Z,998.08
2019-02-11T06:27:04.678Z,998.06
2019-02-11T06:28:04.677Z,998.10
2019-02-11T06:29:04.636Z,998.16
2019-02-11T06:30:05.427Z,998.18
2019-02-11T06:31:04.525Z,998.18
2019-02-11T06:32:04.492Z,998.27
2019-02-11T06:33:04.460Z,998.26
2019-02-11T06:34:04.578Z,998.30
2019-02-11T06:35:04.399Z,998.28
2019-02-11T06:36:11.842Z,998.28
2019-02-11T06:37:04.333Z,998.29
2019-02-11T06:38:04.290Z,998.29
2019-02-11T06:39:04.339Z,998.34
2019-02-11T06:40:04.227Z,998.38
2019-02-11T06:41:04.186Z,998.41
2019-02-11T06:42:04.163Z,998.47
2019-02-11T06:43:04.137Z,998.48
2019-02-11T06:44:04.121Z,998.49
2019-02-11T06:45:12.525Z,998.49
2019-02-11T06:46:04.015Z,998.46
2019-02-11T06:47:03.995Z,998.57
2019-02-11T06:48:03.949Z,998.58
2019-02-11T06:49:03.955Z,998.60
2019-02-11T06:50:03.884Z,998.57
2019-02-11T06:51:03.870Z,998.60
2019-02-11T06:52:03.821Z,998.65
2019-02-11T06:53:03.780Z,998.68
2019-02-11T06:54:03.939Z,998.71
2019-02-11T06:55:03.734Z,998.71
2019-02-11T06:56:03.677Z,998.68
2019-02-11T06:57:04.274Z,998.74
2019-02-11T06:58:03.635Z,998.81
2019-02-11T06:59:03.594Z,998.78
2019-02-11T07:00:03.733Z,998.83
2019-02-11T07:01:04.436Z,998.82
2019-02-11T07:02:03.480Z,998.81
2019-02-11T07:03:03.443Z,998.86
2019-02-11T07:04:03.407Z,998.90
2019-02-11T07:05:03.415Z,998.95
2019-02-11T07:06:03.339Z,998.87
2019-02-11T07:07:03.314Z,999.02
2019-02-11T07:08:03.273Z,998.92
2019-02-11T07:09:03.235Z,998.89
2019-02-11T07:10:03.251Z,999.02
2019-02-11T07:11:03.213Z,998.94
2019-02-11T07:12:03.195Z,998.98
2019-02-11T07:13:03.107Z,998.97
2019-02-11T07:14:03.074Z,999.05
2019-02-11T07:15:03.034Z,999.10
2019-02-11T07:16:02.996Z,999.08
2019-02-11T07:17:03.027Z,999.11
2019-02-11T07:18:02.934Z,999.19
2019-02-11T07:19:02.898Z,999.22
2019-02-11T07:20:02.865Z,999.27
2019-02-11T07:21:02.826Z,999.27
2019-02-11T07:22:02.868Z,999.20
2019-02-11T07:23:02.762Z,999.25
2019-02-11T07:24:02.727Z,999.27
2019-02-11T07:25:02.695Z,999.30
2019-02-11T07:26:02.668Z,999.27
2019-02-11T07:27:02.985Z,999.31
2019-02-11T07:28:02.588Z,999.39
2019-02-11T07:29:02.553Z,999.34
2019-02-11T07:30:02.979Z,999.39
2019-02-11T07:31:02.493Z,999.39
2019-02-11T07:32:02.462Z,999.38
2019-02-11T07:33:02.425Z,999.48
2019-02-11T07:34:02.384Z,999.47
2019-02-11T07:35:02.499Z,999.48
2019-02-11T07:36:02.415Z,999.51
2019-02-11T07:37:02.306Z,999.52
2019-02-11T07:38:02.301Z,999.55
2019-02-11T07:39:02.221Z,999.57
2019-02-11T07:40:02.230Z,999.53
2019-02-11T07:41:02.180Z,999.63
2019-02-11T07:42:02.128Z,999.63
2019-02-11T07:43:02.085Z,999.66
2019-02-11T07:44:02.044Z,999.67
2019-02-11T07:45:02.164Z,999.68
2019-02-11T07:46:01.985Z,999.67
2019-02-11T07:47:01.961Z,999.74
2019-02-11T07:48:01.937Z,999.77
2019-02-11T07:49:01.880Z,999.81
2019-02-11T07:50:02.078Z,999.81
2019-02-11T07:51:01.810Z,999.90
2019-02-11T07:52:01.779Z,999.91
2019-02-11T07:53:01.739Z,999.89
2019-02-11T07:54:04.340Z,999.93
2019-02-11T07:55:01.727Z,999.96
2019-02-11T07:56:01.650Z,999.97
2019-02-11T07:57:01.635Z,1000.04
2019-02-11T07:58:01.575Z,999.97
2019-02-11T07:59:01.558Z,999.98
2019-02-11T08:00:01.891Z,1000.06
2019-02-11T08:01:01.501Z,1000.03
2019-02-11T08:02:01.451Z,1000.07
2019-02-11T08:03:01.399Z,1000.13
2019-02-11T08:04:01.375Z,1000.10
2019-02-11T08:05:01.332Z,1000.15
2019-02-11T08:06:01.374Z,1000.16
2019-02-11T08:07:01.278Z,1000.16
2019-02-11T08:08:01.242Z,1000.16
2019-02-11T08:09:01.197Z,1000.13
2019-02-11T08:10:01.164Z,1000.17
2019-02-11T08:11:01.170Z,1000.23
2019-02-11T08:12:01.103Z,1000.30
2019-02-11T08:13:01.116Z,1000.23
2019-02-11T08:14:01.086Z,1000.25
2019-02-11T08:15:00.996Z,1000.30
2019-02-11T08:16:00.981Z,1000.30
2019-02-11T08:17:00.941Z,1000.29
2019-02-11T08:18:05.855Z,1000.26
2019-02-11T08:19:00.947Z,1000.30
2019-02-11T08:20:00.857Z,1000.31
2019-02-11T08:21:00.799Z,1000.39
2019-02-11T08:22:00.827Z,1000.44
2019-02-11T08:23:00.746Z,1000.44
2019-02-11T08:24:00.691Z,1000.48
2019-02-11T08:25:00.661Z,1000.47
2019-02-11T08:26:00.635Z,1000.57
2019-02-11T08:27:00.645Z,1000.57
2019-02-11T08:28:00.566Z,1000.66
2019-02-11T08:29:00.530Z,1000.67
2019-02-11T08:30:00.509Z,1000.73
2019-02-11T08:31:00.499Z,1000.76
2019-02-11T08:32:00.471Z,1000.74
2019-02-11T08:33:00.430Z,1000.76
2019-02-11T08:34:00.357Z,1000.76
2019-02-11T08:35:00.327Z,1000.76
2019-02-11T08:36:00.299Z,1000.92
2019-02-11T08:37:00.300Z,1000.88
2019-02-11T08:38:00.226Z,1000.73
2019-02-11T08:39:00.193Z,1000.81
2019-02-11T08:40:00.296Z,1000.85
2019-02-11T08:41:00.182Z,1000.87
2019-02-11T08:42:00.096Z,1000.96
2019-02-11T08:43:00.059Z,1000.99
2019-02-11T08:44:00.027Z,1000.95
2019-02-11T08:45:00.051Z,1000.97
2019-02-11T08:45:59.965Z,1001.00
2019-02-11T08:46:59.936Z,1000.94
2019-02-11T08:47:59.972Z,1000.98
2019-02-11T08:48:59.857Z,1001.05
2019-02-11T08:49:59.838Z,1001.07
2019-02-11T08:50:59.805Z,1001.07
2019-02-11T08:51:59.798Z,1001.12
2019-02-11T08:52:59.738Z,1001.17
2019-02-11T08:53:59.736Z,1001.14
2019-02-11T08:54:59.670Z,1001.20
2019-02-11T08:55:59.639Z,1001.06
2019-02-11T08:56:59.593Z,1001.12
2019-02-11T08:58:00.468Z,1001.19
2019-02-11T08:58:59.600Z,1001.21
2019-02-11T08:59:59.496Z,1001.20
2019-02-11T09:00:59.462Z,1001.26
2019-02-11T09:01:59.443Z,1001.32
2019-02-11T09:02:59.393Z,1001.39
2019-02-11T09:03:59.405Z,1001.36
2019-02-11T09:04:59.348Z,1001.38
2019-02-11T09:05:59.293Z,1001.39
2019-02-11T09:06:59.265Z,1001.44
2019-02-11T09:08:00.851Z,1001.39
2019-02-11T09:08:59.264Z,1001.56
2019-02-11T09:09:59.207Z,1001.48
2019-02-11T09:10:59.141Z,1001.55
2019-02-11T09:11:59.106Z,1001.51
2019-02-11T09:12:59.082Z,1001.53
2019-02-11T09:13:59.094Z,1001.61
2019-02-11T09:14:59.021Z,1001.60
2019-02-11T09:15:58.968Z,1001.67
2019-02-11T09:16:58.936Z,1001.67
2019-02-11T09:17:58.903Z,1001.63
2019-02-11T09:18:58.871Z,1001.65
2019-02-11T09:19:58.876Z,1001.71
2019-02-11T09:20:58.806Z,1001.97
2019-02-11T09:22:07.129Z,1001.75
2019-02-11T09:22:58.740Z,1001.84
2019-02-11T09:23:58.708Z,1001.91
2019-02-11T09:24:58.721Z,1001.79
2019-02-11T09:25:58.646Z,1001.83
2019-02-11T09:26:58.620Z,1001.81
2019-02-11T09:27:58.580Z,1001.84
2019-02-11T09:28:58.542Z,1001.92
2019-02-11T09:29:58.552Z,1001.85
2019-02-11T09:30:58.485Z,1001.90
2019-02-11T09:31:58.445Z,1001.98
2019-02-11T09:32:58.416Z,1001.96
2019-02-11T09:33:58.381Z,1001.93
2019-02-11T09:34:58.511Z,1002.01
2019-02-11T09:35:58.317Z,1002.10
2019-02-11T09:36:58.291Z,1002.07
2019-02-11T09:37:58.269Z,1002.04
2019-02-11T09:38:58.230Z,1002.15
2019-02-11T09:39:58.235Z,1002.14
2019-02-11T09:40:58.157Z,1002.20
2019-02-11T09:41:58.131Z,1002.15
2019-02-11T09:42:58.112Z,1002.24
2019-02-11T09:43:58.064Z,1002.25
2019-02-11T09:44:58.072Z,1002.27
2019-02-11T09:46:03.710Z,1002.22
2019-02-11T09:46:57.974Z,1002.36
2019-02-11T09:47:57.941Z,1002.27
2019-02-11T09:48:57.901Z,1002.30
2019-02-11T09:49:57.908Z,1002.35
2019-02-11T09:50:57.853Z,1002.35
2019-02-11T09:51:57.832Z,1002.40
2019-02-11T09:52:57.775Z,1002.37
2019-02-11T09:53:57.742Z,1002.53
2019-02-11T09:54:57.842Z,1002.48
2019-02-11T09:55:57.681Z,1002.64
2019-02-11T09:56:57.650Z,1002.47
2019-02-11T09:57:57.613Z,1002.57
2019-02-11T09:58:57.594Z,1002.48
2019-02-11T09:59:57.599Z,1002.57
2019-02-11T10:00:57.523Z,1002.53
2019-02-11T10:01:57.484Z,1002.58
2019-02-11T10:02:57.482Z,1002.66
2019-02-11T10:03:57.960Z,1002.60
2019-02-11T10:04:57.481Z,1002.71
2019-02-11T10:05:57.354Z,1002.63
2019-02-11T10:06:57.318Z,1002.67
2019-02-11T10:07:57.292Z,1002.78
2019-02-11T10:08:57.290Z,1002.78
2019-02-11T10:09:57.264Z,1002.83
2019-02-11T10:10:57.194Z,1002.83
2019-02-11T10:11:57.183Z,1002.82
2019-02-11T10:12:57.137Z,1002.91
2019-02-11T10:13:57.094Z,1002.86
2019-02-11T10:14:57.163Z,1002.88
2019-02-11T10:15:57.047Z,1002.89
2019-02-11T10:16:57.010Z,1002.99
2019-02-11T10:17:56.969Z,1003.00
2019-02-11T10:18:56.935Z,1003.04
2019-02-11T10:19:56.998Z,1002.99
2019-02-11T10:20:56.881Z,1003.02
2019-02-11T10:21:56.847Z,1003.01
2019-02-11T10:22:56.835Z,1003.06
2019-02-11T10:23:56.855Z,1003.01
2019-02-11T10:24:56.837Z,1003.02
2019-02-11T10:25:56.733Z,1003.07
2019-02-11T10:26:56.683Z,1003.13
2019-02-11T10:27:56.644Z,1003.10
2019-02-11T10:28:56.638Z,1003.13
2019-02-11T10:29:56.583Z,1003.21
2019-02-11T10:30:56.598Z,1003.24
2019-02-11T10:31:56.547Z,1003.33
2019-02-11T10:32:56.494Z,1003.28
2019-02-11T10:33:56.463Z,1003.29
2019-02-11T10:34:56.424Z,1003.30
2019-02-11T10:36:03.472Z,1003.28
2019-02-11T10:36:56.359Z,1003.32
2019-02-11T10:37:56.330Z,1003.29
2019-02-11T10:38:56.298Z,1003.34
2019-02-11T10:39:56.265Z,1003.25
2019-02-11T10:40:56.248Z,1003.34
2019-02-11T10:41:56.233Z,1003.65
2019-02-11T10:42:56.988Z,1003.41
2019-02-11T10:43:56.130Z,1003.41
2019-02-11T10:44:56.097Z,1003.47
2019-02-11T10:45:56.099Z,1003.56
2019-02-11T10:46:56.038Z,1003.67
2019-02-11T10:47:56.003Z,1003.42
2019-02-11T10:48:55.971Z,1003.53
2019-02-11T10:49:55.944Z,1003.48
2019-02-11T10:50:55.932Z,1003.40
2019-02-11T10:51:55.901Z,1003.47
2019-02-11T10:52:55.844Z,1003.58
2019-02-11T10:53:55.812Z,1003.60
2019-02-11T10:54:55.782Z,1003.73
2019-02-11T10:55:55.749Z,1003.60
2019-02-11T10:56:55.739Z,1003.48
2019-02-11T10:57:55.684Z,1003.62
2019-02-11T10:58:55.691Z,1003.54
2019-02-11T10:59:55.627Z,1003.58
2019-02-11T11:00:55.599Z,1003.62
2019-02-11T11:01:55.588Z,1003.63
2019-02-11T11:02:55.531Z,1003.68
2019-02-11T11:03:55.507Z,1003.69
2019-02-11T11:04:55.468Z,1003.71
2019-02-11T11:05:55.431Z,1003.75
2019-02-11T11:06:55.432Z,1003.70
2019-02-11T11:07:55.376Z,1003.86
2019-02-11T11:08:55.341Z,1003.82
2019-02-11T11:09:55.313Z,1003.82
2019-02-11T11:10:55.283Z,1003.90
2019-02-11T11:11:55.267Z,1003.92
2019-02-11T11:12:55.308Z,1003.97
2019-02-11T11:13:55.183Z,1003.90
2019-02-11T11:14:55.154Z,1003.95
2019-02-11T11:15:55.124Z,1003.94
2019-02-11T11:16:55.123Z,1003.99
2019-02-11T11:17:55.133Z,1004.01
2019-02-11T11:18:55.054Z,1004.10
2019-02-11T11:19:55.897Z,1004.08
2019-02-11T11:20:54.966Z,1004.07
2019-02-11T11:21:54.953Z,1004.12
2019-02-11T11:22:54.910Z,1004.12
2019-02-11T11:23:54.873Z,1004.22
2019-02-11T11:24:54.841Z,1004.13
2019-02-11T11:25:54.809Z,1004.23
2019-02-11T11:26:55.894Z,1004.18
2019-02-11T11:27:54.752Z,1004.24
2019-02-11T11:28:54.717Z,1004.22
2019-02-11T11:29:54.684Z,1004.22
2019-02-11T11:30:54.653Z,1004.29
2019-02-11T11:31:54.744Z,1004.28
2019-02-11T11:32:54.629Z,1004.26
2019-02-11T11:33:54.556Z,1004.27
2019-02-11T11:34:54.526Z,1004.31
2019-02-11T11:35:54.495Z,1004.35
2019-02-11T11:36:54.530Z,1004.34
2019-02-11T11:37:54.445Z,1004.23
2019-02-11T11:38:54.405Z,1004.25
2019-02-11T11:39:54.369Z,1004.20
2019-02-11T11:40:54.347Z,1004.37
2019-02-11T11:41:56.896Z,1004.32
2019-02-11T11:42:54.278Z,1004.34
2019-02-11T11:43:54.249Z,1004.30
2019-02-11T11:44:54.221Z,1004.41
2019-02-11T11:45:54.190Z,1004.55
2019-02-11T11:46:54.189Z,1004.37
2019-02-11T11:47:54.124Z,1004.45
2019-02-11T11:48:54.087Z,1004.41
2019-02-11T11:49:54.068Z,1004.39
2019-02-11T11:50:54.029Z,1004.42
2019-02-11T11:51:53.999Z,1004.35
2019-02-11T11:52:54.006Z,1004.39
2019-02-11T11:53:53.947Z,1004.53
2019-02-11T11:54:53.901Z,1004.45
2019-02-11T11:55:53.875Z,1004.39
2019-02-11T11:56:53.898Z,1004.44
2019-02-11T11:57:53.837Z,1004.41
2019-02-11T11:58:53.782Z,1004.41
2019-02-11T11:59:53.743Z,1004.47
2019-02-11T12:00:53.714Z,1004.50
2019-02-11T12:01:53.796Z,1004.41
2019-02-11T12:03:02.210Z,1004.52
2019-02-11T12:03:53.623Z,1004.54
2019-02-11T12:04:53.589Z,1004.52
2019-02-11T12:05:53.563Z,1004.56
2019-02-11T12:06:53.531Z,1004.65
2019-02-11T12:07:53.584Z,1004.58
2019-02-11T12:08:53.496Z,1004.64
2019-02-11T12:09:53.444Z,1004.58
2019-02-11T12:10:53.428Z,1004.60
2019-02-11T12:11:53.394Z,1004.60
2019-02-11T12:12:53.391Z,1004.66
2019-02-11T12:13:53.331Z,1004.70
2019-02-11T12:14:53.277Z,1004.75
2019-02-11T12:15:53.249Z,1004.71
2019-02-11T12:16:59.625Z,1004.75
2019-02-11T12:17:53.211Z,1004.75
2019-02-11T12:18:53.157Z,1004.75
2019-02-11T12:19:53.136Z,1004.62
2019-02-11T12:20:53.101Z,1004.86
2019-02-11T12:21:53.070Z,1004.83
2019-02-11T12:22:53.072Z,1004.91